Latest Weather Observations for Noarlunga

IDS60901

Issued at 9:35 pm CST Monday 22 September 2014 (issued every 10 minutes, with the page automatically refreshed every 10 minutes)

About weather observations | Map of Adelaide area stations | Latest observations for Adelaide area | Other Formats
Station Details ID: 023885 Name: NOARLUNGA Lat: -35.16 Lon: 138.51 Height: 55.0 m
Data from the previous 72 hours. | See also: Recent months at Noarlunga
Date/Time
CST
Tmp

°C
App
Tmp
°C
Dew
Point
°C
Rel
Hum
%
Delta-T

°C
Wind Press
QNH
hPa
Press
MSL
hPa
Rain
since
9 am
mm
Dir
 
Spd
km/h
Gust
km/h
Spd
kts
Gust
kts
22/09:30pm 20.7 14.8 -5.2 17 10.4 E 17 26 9 14 - - 0.0
22/09:00pm 18.9 14.0 -3.3 22 9.1 E 13 19 7 10 - - 0.0
22/08:30pm 18.4 12.6 -1.4 26 8.4 E 19 24 10 13 - - 0.0
22/08:00pm 18.7 14.1 -1.2 26 8.5 E 13 17 7 9 - - 0.0
22/07:30pm 18.8 14.4 0.4 29 8.1 E 13 19 7 10 - - 0.0
22/07:00pm 19.1 15.2 1.1 30 8.1 E 11 13 6 7 - - 0.0
22/06:30pm 19.9 16.3 0.9 28 8.6 ESE 9 13 5 7 - - 0.0
22/06:00pm 21.1 17.8 0.3 25 9.3 SE 7 13 4 7 - - 0.0
22/05:30pm 22.6 19.3 -0.2 22 10.3 S 7 9 4 5 - - 0.0
22/05:00pm 23.2 19.8 -1.7 19 11.0 S 6 9 3 5 - - 0.0
22/04:30pm 23.2 19.5 -3.2 17 11.3 SSW 7 9 4 5 - - 0.0
22/04:00pm 23.2 19.6 -2.4 18 11.1 WSW 7 11 4 6 - - 0.0
22/03:30pm 24.0 20.6 -1.8 18 11.4 W 6 9 3 5 - - 0.0
22/03:00pm 23.5 19.6 -1.4 19 11.0 W 9 11 5 6 - - 0.0
22/02:30pm 22.9 19.6 2.4 26 9.7 W 9 15 5 8 - - 0.0
22/02:00pm 22.9 18.8 2.4 26 9.7 W 13 17 7 9 - - 0.0
22/01:30pm 24.5 19.6 -0.6 19 11.4 NW 15 22 8 12 - - 0.0
22/01:00pm 24.4 19.1 -3.9 15 12.1 NNW 15 20 8 11 - - 0.0
22/12:30pm 24.3 19.0 -4.0 15 12.0 N 15 24 8 13 - - 0.0
22/12:00pm 23.4 17.1 -3.8 16 11.5 NNW 20 30 11 16 - - 0.0
22/11:30am 23.5 17.1 -4.6 15 11.7 NNW 20 28 11 15 - - 0.0
22/11:00am 23.6 17.2 -5.4 14 11.9 N 20 32 11 17 - - 0.0
22/10:30am 23.0 17.2 -5.0 15 11.5 N 17 26 9 14 - - 0.0
22/10:00am 21.8 15.4 -5.1 16 10.9 N 20 32 11 17 - - 0.0
22/09:30am 21.3 14.7 -3.2 19 10.3 NNE 22 32 12 17 - - 0.0
22/09:00am 20.7 14.5 -3.0 20 9.9 NNE 20 37 11 20 - - 0.0
22/08:30am 20.0 13.9 -2.3 22 9.4 NNE 20 33 11 18 - - 0.0
22/08:00am 19.2 13.4 -1.3 25 8.8 NNE 19 28 10 15 - - 0.0
22/07:30am 17.6 12.2 -1.6 27 8.0 NNE 17 24 9 13 - - 0.0
22/07:00am 16.6 11.1 -2.0 28 7.7 NNE 17 22 9 12 - - 0.0
22/06:30am 15.9 10.4 -2.1 29 7.3 NNE 17 22 9 12 - - 0.0
22/06:00am 15.2 10.0 -2.7 29 7.2 NE 15 20 8 11 - - 0.0
22/05:30am 15.2 10.4 -2.7 29 7.2 NE 13 19 7 10 - - 0.0
22/05:00am 15.6 10.8 -2.3 29 7.3 NE 13 19 7 10 - - 0.0
22/04:30am 14.5 9.8 -2.0 32 6.7 ENE 13 17 7 9 - - 0.0
22/04:00am 14.1 9.4 -1.9 33 6.4 ENE 13 19 7 10 - - 0.0
22/03:30am 11.8 7.7 0.0 44 4.8 E 11 15 6 8 - - 0.0
22/03:00am 11.7 7.4 0.8 47 4.5 E 13 17 7 9 - - 0.0
22/02:30am 13.7 8.9 0.0 39 5.7 E 15 20 8 11 - - 0.0
22/02:00am 14.3 9.2 0.9 40 5.7 ENE 17 22 9 12 - - 0.0
22/01:30am 13.9 10.0 1.2 42 5.5 ENE 11 17 6 9 - - 0.0
22/01:00am 14.8 10.5 1.3 40 5.9 ENE 13 22 7 12 - - 0.0
22/12:30am 14.1 10.0 2.4 45 5.2 E 13 17 7 9 - - 0.0
22/12:00am 15.2 11.1 2.1 41 5.8 E 13 20 7 11 - - 0.0
 
Date/Time
CST
Tmp

°C
App
Tmp
°C
Dew
Point
°C
Rel
Hum
%
Delta-T

°C
Wind Press
QNH
hPa
Press
MSL
hPa
Rain
since
9 am
mm
Dir
 
Spd
km/h
Gust
km/h
Spd
kts
Gust
kts
21/11:30pm 14.7 11.5 3.2 46 5.2 NE 9 17 5 9 - - 0.0
21/11:00pm 15.1 11.2 3.3 45 5.4 E 13 24 7 13 - - 0.0
21/10:30pm 15.0 10.8 3.8 47 5.1 E 15 24 8 13 - - 0.0
21/10:00pm 15.2 10.5 3.4 45 5.4 E 17 22 9 12 - - 0.0
21/09:30pm 14.8 10.1 3.0 45 5.3 E 17 26 9 14 - - 0.0
21/09:00pm 14.5 10.1 2.7 45 5.3 E 15 22 8 12 - - 0.0
21/08:30pm 14.8 10.8 2.7 44 5.4 E 13 20 7 11 - - 0.0
21/08:00pm 14.5 11.0 3.6 48 5.0 E 11 17 6 9 - - 0.0
21/07:30pm 14.7 12.2 3.8 48 5.0 E 6 11 3 6 - - 0.0
21/07:00pm 14.9 13.0 2.8 44 5.4 ESE 2 4 1 2 - - 0.0
21/06:30pm 15.8 14.4 3.3 43 5.7 CALM 0 2 0 1 - - 0.0
21/06:00pm 17.3 14.8 3.6 40 6.4 SW 6 7 3 4 - - 0.0
21/05:30pm 18.4 16.1 4.6 40 6.6 SW 6 9 3 5 - - 0.0
21/05:00pm 18.5 15.6 4.7 40 6.6 SSW 9 15 5 8 - - 0.0
21/04:30pm 19.1 16.1 4.1 37 7.2 SW 9 15 5 8 - - 0.0
21/04:00pm 19.1 15.7 5.9 42 6.5 SW 13 19 7 10 - - 0.0
21/03:30pm 20.4 17.4 4.0 34 7.9 WSW 9 15 5 8 - - 0.0
21/03:00pm 20.9 17.3 2.7 30 8.6 WSW 11 17 6 9 - - 0.0
21/02:30pm 21.5 18.2 2.7 29 8.9 WNW 9 15 5 8 - - 0.0
21/02:00pm 21.4 18.7 2.6 29 8.9 W 6 11 3 6 - - 0.0
21/01:30pm 20.8 17.6 3.1 31 8.4 WSW 9 13 5 7 - - 0.0
21/01:00pm 20.6 18.1 3.8 33 8.1 WNW 6 9 3 5 - - 0.0
21/12:30pm 20.2 17.1 3.4 33 8.0 WNW 9 13 5 7 - - 0.0
21/12:00pm 19.5 15.7 1.9 31 8.1 W 11 15 6 8 - - 0.0
21/11:30am 19.5 15.9 2.8 33 7.8 W 11 17 6 9 - - 0.0
21/11:00am 19.0 16.1 2.8 34 7.5 WNW 7 11 4 6 - - 0.0
21/10:30am 18.8 15.4 1.8 32 7.7 WNW 9 13 5 7 - - 0.0
21/10:00am 19.2 16.5 2.6 33 7.7 NNE 6 13 3 7 - - 0.0
21/09:30am 18.4 16.0 1.9 33 7.5 NE 4 6 2 3 - - 0.0
21/09:00am 17.6 15.1 1.6 34 7.2 NE 4 6 2 3 - - 0.0
21/08:30am 17.3 14.8 1.7 35 7.0 NE 4 7 2 4 - - 0.0
21/08:00am 15.7 13.0 2.8 42 5.8 NE 6 9 3 5 - - 0.0
21/07:30am 14.2 12.3 3.1 47 5.0 ENE 2 4 1 2 - - 0.0
21/07:00am 12.4 9.6 2.3 50 4.4 ENE 6 9 3 5 - - 0.0
21/06:30am 11.1 8.1 1.9 53 3.9 ENE 7 13 4 7 - - 0.0
21/06:00am 11.0 8.5 1.5 52 4.0 NNE 4 7 2 4 - - 0.0
21/05:30am 11.5 8.5 1.7 51 4.2 N 7 9 4 5 - - 0.0
21/05:00am 12.6 9.2 1.6 47 4.7 ENE 9 20 5 11 - - 0.0
21/04:30am 13.0 8.0 1.4 45 5.0 ENE 17 26 9 14 - - 0.0
21/04:00am 13.1 7.8 1.8 46 4.9 ENE 19 26 10 14 - - 0.0
21/03:30am 13.2 7.7 2.1 47 4.8 ENE 20 30 11 16 - - 0.0
21/03:00am 13.1 7.8 2.1 47 4.8 ENE 19 26 10 14 - - 0.0
21/02:30am 13.5 7.3 2.4 47 4.9 E 24 37 13 20 - - 0.0
21/02:00am 13.3 7.1 2.2 47 4.9 E 24 35 13 19 - - 0.0
21/01:30am 13.4 7.3 2.6 48 4.8 E 24 35 13 19 - - 0.0
21/01:00am 13.4 7.4 3.2 50 4.6 E 24 48 13 26 - - 0.0
21/12:30am 13.4 7.9 3.8 52 4.4 E 22 33 12 18 - - 0.0
21/12:00am 13.6 7.3 3.9 52 4.4 E 26 41 14 22 - - 0.0
 
Date/Time
CST
Tmp

°C
App
Tmp
°C
Dew
Point
°C
Rel
Hum
%
Delta-T

°C
Wind Press
QNH
hPa
Press
MSL
hPa
Rain
since
9 am
mm
Dir
 
Spd
km/h
Gust
km/h
Spd
kts
Gust
kts
20/11:30pm 13.7 8.2 4.0 52 4.4 E 22 44 12 24 - - 0.0
20/11:00pm 14.0 7.5 4.9 54 4.2 E 28 41 15 22 - - 0.0
20/10:30pm 14.0 7.9 4.9 54 4.2 E 26 39 14 21 - - 0.0
20/10:00pm 13.7 8.0 5.1 56 4.0 ESE 24 35 13 19 - - 0.0
20/09:30pm 14.1 8.0 4.9 54 4.3 E 26 44 14 24 - - 0.0
20/09:00pm 14.0 7.9 4.6 53 4.4 ESE 26 35 14 19 - - 0.0
20/08:30pm 14.3 8.2 4.6 52 4.5 ESE 26 37 14 20 - - 0.0
20/08:00pm 14.6 8.1 4.9 52 4.5 ESE 28 39 15 21 - - 0.0
20/07:30pm 15.3 9.0 5.8 53 4.6 ESE 28 43 15 23 - - 0.0
20/07:00pm 15.8 10.9 5.1 49 5.1 ESE 20 32 11 17 - - 0.0
20/06:30pm 16.9 11.8 2.9 39 6.4 ESE 19 28 10 15 - - 0.0
20/06:00pm 18.0 13.3 0.6 31 7.7 ESE 15 28 8 15 - - 0.0
20/05:30pm 19.2 13.5 0.8 29 8.2 ESE 20 28 11 15 - - 0.0
20/05:00pm 20.1 14.7 1.5 29 8.5 SE 19 26 10 14 - - 0.0
20/04:30pm 20.2 16.7 3.4 33 8.0 SW 11 15 6 8 - - 0.0
20/04:00pm 20.8 17.7 3.5 32 8.3 SW 9 11 5 6 - - 0.0
20/03:30pm 20.8 17.2 3.1 31 8.4 SW 11 17 6 9 - - 0.0
20/03:00pm 21.4 18.4 2.2 28 9.0 WSW 7 13 4 7 - - 0.0
20/02:30pm 21.1 17.7 1.9 28 8.9 W 9 15 5 8 - - 0.0
20/02:00pm 21.0 17.5 1.3 27 9.0 WSW 9 15 5 8 - - 0.0
20/01:30pm 20.6 16.7 1.0 27 8.9 W 11 19 6 10 - - 0.0
20/01:00pm 21.1 17.6 3.3 31 8.5 W 11 17 6 9 - - 0.0
20/12:30pm 20.1 16.1 2.9 32 8.1 WNW 13 17 7 9 - - 0.0
20/12:00pm 20.8 17.4 2.1 29 8.7 WNW 9 13 5 7 - - 0.0
20/11:30am 19.8 15.6 1.7 30 8.3 W 13 19 7 10 - - 0.0
20/11:00am 19.3 16.0 2.2 32 7.9 WNW 9 13 5 7 - - 0.0
20/10:30am 19.0 15.6 2.0 32 7.8 WNW 9 13 5 7 - - 0.0
20/10:00am 19.2 16.5 2.6 33 7.7 ESE 6 9 3 5 - - 0.0
20/09:30am 18.9 16.2 2.7 34 7.5 E 6 11 3 6 - - 0.0
20/09:00am 17.2 13.9 2.4 37 6.7 E 9 11 5 6 - - 0.2
20/08:30am 15.7 12.4 2.2 40 6.0 ENE 9 15 5 8 - - 0.2
20/08:00am 14.3 11.2 1.2 41 5.7 NE 7 15 4 8 - - 0.2
20/07:30am 12.5 7.8 1.2 46 4.8 ENE 15 22 8 12 - - 0.2
20/07:00am 11.5 6.4 0.9 48 4.4 ENE 17 24 9 13 - - 0.2
20/06:30am 10.9 5.3 1.2 51 4.1 ENE 20 30 11 16 - - 0.2
20/06:00am 10.8 5.2 1.1 51 4.0 E 20 30 11 16 - - 0.2
20/05:30am 11.0 5.4 1.3 51 4.1 ENE 20 35 11 19 - - 0.2
20/05:00am 11.1 5.1 1.1 50 4.2 E 22 32 12 17 - - 0.2
20/04:30am 11.3 5.7 1.3 50 4.2 E 20 32 11 17 - - 0.2
20/04:00am 11.3 5.7 1.3 50 4.2 E 20 32 11 17 - - 0.2
20/03:30am 11.4 5.5 1.6 51 4.2 E 22 33 12 18 - - 0.2
20/03:00am 11.4 5.5 1.9 52 4.1 E 22 33 12 18 - - 0.2
20/02:30am 11.6 5.0 2.1 52 4.1 E 26 37 14 20 - - 0.2
20/02:00am 11.3 5.2 2.6 55 3.8 E 24 35 13 19 - - 0.2
20/01:30am 11.4 5.3 2.7 55 3.8 E 24 37 13 20 - - 0.2
20/01:00am 11.5 5.4 2.8 55 3.8 E 24 41 13 22 - - 0.2
20/12:30am 11.6 5.6 3.1 56 3.7 E 24 35 13 19 - - 0.2
20/12:00am 11.6 5.2 3.4 57 3.6 E 26 37 14 20 - - 0.2
 
Date/Time
CST
Tmp

°C
App
Tmp
°C
Dew
Point
°C
Rel
Hum
%
Delta-T

°C
Wind Press
QNH
hPa
Press
MSL
hPa
Rain
since
9 am
mm
Dir
 
Spd
km/h
Gust
km/h
Spd
kts
Gust
kts
19/11:30pm 11.8 5.1 3.6 57 3.6 E 28 39 15 21 - - 0.2
19/11:00pm 11.7 5.5 4.4 61 3.3 E 26 41 14 22 - - 0.2
19/10:30pm 11.9 5.4 4.6 61 3.3 E 28 37 15 20 - - 0.2
19/10:00pm 12.0 6.3 5.0 62 3.2 E 24 35 13 19 - - 0.2

Latest Capital City Observations: Canberra | Sydney | Melbourne | Brisbane | Adelaide | Perth | Hobart | Darwin

Other Formats:

Comma delimited format used in spreadsheet applications
http://www.bom.gov.au/fwo/IDS60901/IDS60901.94808.axf

JavaScript Object Notation format (JSON) in row-major order
http://www.bom.gov.au/fwo/IDS60901/IDS60901.94808.json